createdAt,value
2018-06-12T00:00:43.941Z,4.00
2018-06-12T00:03:12.836Z,4.97
2018-06-12T00:05:41.644Z,4.40
2018-06-12T00:08:10.447Z,4.60
2018-06-12T00:10:39.153Z,4.20
2018-06-12T00:13:08.152Z,5.10
2018-06-12T00:15:36.957Z,5.47
2018-06-12T00:18:06.048Z,5.20
2018-06-12T00:20:34.755Z,5.20
2018-06-12T00:23:03.571Z,5.60
2018-06-12T00:25:32.464Z,5.57
2018-06-12T00:28:03.132Z,5.50
2018-06-12T00:30:31.855Z,5.00
2018-06-12T00:33:00.873Z,4.70
2018-06-12T00:35:29.775Z,4.70
2018-06-12T00:37:58.648Z,4.67
2018-06-12T00:40:27.506Z,4.43
2018-06-12T00:42:56.300Z,4.57
2018-06-12T00:45:25.135Z,4.70
2018-06-12T00:47:53.874Z,4.67
2018-06-12T00:50:22.662Z,4.97
2018-06-12T00:52:51.465Z,5.13
2018-06-12T00:55:20.354Z,5.90
2018-06-12T00:57:49.048Z,6.87
2018-06-12T01:00:18.087Z,5.57
2018-06-12T01:02:46.838Z,6.07
2018-06-12T01:05:15.591Z,5.50
2018-06-12T01:07:44.395Z,5.17
2018-06-12T01:10:13.097Z,4.80
2018-06-12T01:12:41.888Z,5.47
2018-06-12T01:15:10.549Z,5.70
2018-06-12T01:17:39.322Z,5.60
2018-06-12T01:20:08.054Z,5.53
2018-06-12T01:22:36.719Z,4.87
2018-06-12T01:25:05.423Z,5.67
2018-06-12T01:27:34.129Z,5.33
2018-06-12T01:30:03.507Z,5.30
2018-06-12T01:32:32.445Z,5.30
2018-06-12T01:35:01.147Z,5.40
2018-06-12T01:37:30.087Z,5.80
2018-06-12T01:39:58.872Z,5.30
2018-06-12T01:42:27.562Z,5.67
2018-06-12T01:44:56.487Z,6.60
2018-06-12T01:47:25.275Z,6.00
2018-06-12T01:49:54.967Z,6.40
2018-06-12T01:52:23.718Z,7.37
2018-06-12T01:54:52.502Z,7.17
2018-06-12T01:57:21.219Z,7.40
2018-06-12T01:59:49.895Z,6.80
2018-06-12T02:02:18.590Z,7.20
2018-06-12T02:04:47.620Z,7.57
2018-06-12T02:07:16.449Z,8.13
2018-06-12T02:15:26.216Z,8.63
2018-06-12T02:17:54.890Z,7.47
2018-06-12T02:20:23.574Z,7.53
2018-06-12T02:22:52.451Z,6.77
2018-06-12T02:25:21.088Z,7.87
2018-06-12T02:27:50.103Z,7.07
2018-06-12T02:30:18.884Z,8.00
2018-06-12T02:32:48.706Z,8.43
2018-06-12T02:35:17.396Z,8.40
2018-06-12T02:37:46.150Z,7.70
2018-06-12T02:40:14.863Z,9.83
2018-06-12T02:42:43.479Z,9.03
2018-06-12T02:45:12.162Z,8.17
2018-06-12T02:47:41.002Z,8.20
2018-06-12T02:50:09.743Z,8.10
2018-06-12T02:52:38.406Z,9.27
2018-06-12T02:55:07.130Z,9.43
2018-06-12T02:57:36.043Z,9.20
2018-06-12T03:00:05.014Z,8.60
2018-06-12T03:02:33.649Z,9.20
2018-06-12T03:05:02.434Z,8.37
2018-06-12T03:07:31.607Z,9.37
2018-06-12T03:10:00.210Z,8.90
2018-06-12T03:12:29.015Z,9.03
2018-06-12T03:14:57.675Z,9.23
2018-06-12T03:17:26.400Z,9.47
2018-06-12T03:19:55.063Z,9.70
2018-06-12T03:22:23.822Z,10.70
2018-06-12T03:24:52.561Z,10.83
2018-06-12T03:27:21.606Z,10.50
2018-06-12T03:29:50.423Z,11.37
2018-06-12T03:32:19.266Z,10.70
2018-06-12T03:34:48.137Z,12.60
2018-06-12T03:37:16.862Z,11.60
2018-06-12T03:39:45.597Z,13.97
2018-06-12T03:42:14.403Z,12.50
2018-06-12T03:44:43.162Z,12.70
2018-06-12T03:47:11.948Z,11.57
2018-06-12T03:49:40.694Z,12.13
2018-06-12T03:52:09.656Z,13.50
2018-06-12T03:54:38.311Z,16.47
2018-06-12T03:57:07.237Z,15.40
2018-06-12T03:59:35.993Z,16.70
2018-06-12T04:02:05.006Z,17.20
2018-06-12T04:04:33.775Z,16.10
2018-06-12T04:07:02.567Z,16.67
2018-06-12T04:09:31.460Z,16.20
2018-06-12T04:12:00.137Z,15.17
2018-06-12T04:14:28.965Z,16.43
2018-06-12T04:16:57.845Z,15.53
2018-06-12T04:19:26.785Z,15.83
2018-06-12T04:21:55.508Z,16.77
2018-06-12T04:24:24.329Z,15.00
2018-06-12T04:26:53.317Z,16.87
2018-06-12T04:29:22.156Z,16.77
2018-06-12T04:31:50.980Z,15.70
2018-06-12T04:34:19.767Z,16.40
2018-06-12T04:36:48.564Z,15.53
2018-06-12T04:39:17.465Z,17.07
2018-06-12T04:41:46.339Z,16.50
2018-06-12T04:44:15.152Z,16.47
2018-06-12T04:46:44.092Z,16.30
2018-06-12T04:49:13.117Z,14.80
2018-06-12T04:51:41.951Z,14.73
2018-06-12T04:54:10.859Z,12.87
2018-06-12T04:56:39.689Z,14.63
2018-06-12T04:59:08.556Z,13.03
2018-06-12T05:01:37.681Z,13.57
2018-06-12T05:04:06.699Z,14.23
2018-06-12T05:06:35.715Z,13.07
2018-06-12T05:09:08.560Z,12.80
2018-06-12T05:11:37.396Z,15.30
2018-06-12T05:14:06.647Z,13.33
2018-06-12T05:16:35.437Z,13.67
2018-06-12T05:19:05.787Z,13.20
2018-06-12T05:21:34.966Z,14.90
2018-06-12T05:24:05.794Z,13.13
2018-06-12T05:26:34.831Z,12.93
2018-06-12T05:29:03.745Z,13.30
2018-06-12T05:31:32.637Z,14.03
2018-06-12T05:34:01.990Z,12.37
2018-06-12T05:36:30.852Z,15.00
2018-06-12T05:38:59.809Z,14.37
2018-06-12T05:41:28.699Z,12.90
2018-06-12T05:43:57.656Z,13.23
2018-06-12T05:46:26.797Z,14.70
2018-06-12T05:48:55.683Z,14.40
2018-06-12T05:51:24.768Z,13.33
2018-06-12T05:53:53.863Z,14.63
2018-06-12T05:56:22.824Z,13.53
2018-06-12T05:58:52.172Z,13.40
2018-06-12T06:01:21.609Z,13.07
2018-06-12T06:03:50.662Z,14.60
2018-06-12T06:06:20.148Z,14.63
2018-06-12T06:08:49.355Z,14.47
2018-06-12T06:11:18.481Z,12.90
2018-06-12T06:13:47.566Z,13.60
2018-06-12T06:16:16.694Z,14.60
2018-06-12T06:18:45.698Z,12.87
2018-06-12T06:21:15.196Z,12.03
2018-06-12T06:23:44.310Z,11.60
2018-06-12T06:26:13.879Z,10.43
2018-06-12T06:28:42.936Z,10.00
2018-06-12T06:31:12.214Z,10.10
2018-06-12T06:33:41.452Z,9.90
2018-06-12T06:36:10.792Z,11.43
2018-06-12T06:38:40.094Z,8.70
2018-06-12T06:41:09.432Z,8.63
2018-06-12T06:43:38.598Z,7.90
2018-06-12T06:46:07.991Z,8.30
2018-06-12T06:48:37.117Z,9.67
2018-06-12T06:51:06.462Z,9.23
2018-06-12T06:53:36.033Z,9.90
2018-06-12T06:56:05.146Z,11.37
2018-06-12T06:58:34.443Z,11.63
2018-06-12T07:01:03.757Z,10.50
2018-06-12T07:03:33.320Z,9.50
2018-06-12T07:06:02.373Z,9.10
2018-06-12T07:08:31.453Z,7.40
2018-06-12T07:11:00.560Z,7.93
2018-06-12T07:13:29.894Z,7.77
2018-06-12T07:15:58.968Z,5.60
2018-06-12T07:18:28.067Z,5.27
2018-06-12T07:21:17.615Z,4.03
2018-06-12T07:23:46.843Z,3.93
2018-06-12T07:26:16.077Z,3.20
2018-06-12T07:28:45.037Z,4.27
2018-06-12T07:31:14.147Z,4.27
2018-06-12T07:33:43.282Z,4.37
2018-06-12T07:36:12.563Z,4.03
2018-06-12T07:38:41.923Z,3.90
2018-06-12T07:41:10.971Z,4.97
2018-06-12T07:43:40.049Z,4.37
2018-06-12T07:46:09.121Z,3.73
2018-06-12T07:48:38.286Z,3.77
2018-06-12T07:51:07.416Z,4.20
2018-06-12T07:53:36.880Z,3.50
2018-06-12T07:56:05.982Z,3.67
2018-06-12T07:58:35.062Z,3.93
2018-06-12T08:01:06.434Z,4.10
2018-06-12T08:03:35.562Z,3.40
2018-06-12T08:06:06.022Z,3.73
2018-06-12T08:08:35.277Z,4.57
2018-06-12T08:11:04.340Z,3.40
2018-06-12T08:13:33.537Z,4.73
2018-06-12T08:16:02.627Z,3.60
2018-06-12T08:18:31.836Z,3.80
2018-06-12T08:21:01.169Z,3.80
2018-06-12T08:23:30.418Z,3.90
2018-06-12T08:25:59.588Z,3.03
2018-06-12T08:28:28.752Z,3.47
2018-06-12T08:30:57.954Z,3.40
2018-06-12T08:33:27.312Z,3.60
2018-06-12T08:35:56.390Z,3.03
2018-06-12T08:38:25.440Z,2.40
2018-06-12T08:40:54.704Z,3.13
2018-06-12T08:43:23.809Z,3.50
2018-06-12T08:45:53.095Z,2.80
2018-06-12T08:48:22.228Z,3.57
2018-06-12T08:50:51.363Z,3.37
2018-06-12T08:53:20.909Z,3.10
2018-06-12T08:55:50.100Z,2.80
2018-06-12T08:58:19.259Z,3.13
2018-06-12T09:00:48.487Z,3.40
2018-06-12T09:03:17.606Z,3.17
2018-06-12T09:05:46.699Z,3.33
2018-06-12T09:08:15.714Z,3.90
2018-06-12T09:10:44.805Z,3.67
2018-06-12T09:13:13.869Z,4.20
2018-06-12T09:15:43.089Z,3.60
2018-06-12T09:18:12.178Z,3.33
2018-06-12T09:20:41.591Z,3.20
2018-06-12T09:23:10.776Z,3.20
2018-06-12T09:25:39.846Z,3.50
2018-06-12T09:28:09.217Z,3.03
2018-06-12T09:30:38.261Z,3.07
2018-06-12T09:33:07.421Z,3.97
2018-06-12T09:35:36.515Z,4.30
2018-06-12T09:38:05.739Z,3.30
2018-06-12T09:40:34.808Z,2.93
2018-06-12T09:43:04.412Z,4.13
2018-06-12T09:45:33.573Z,3.40
2018-06-12T09:48:02.724Z,3.27
2018-06-12T09:50:31.937Z,2.90
2018-06-12T09:53:01.152Z,3.23
2018-06-12T09:55:30.629Z,3.30
2018-06-12T09:57:59.762Z,3.73
2018-06-12T10:00:34.094Z,3.67
2018-06-12T10:03:03.080Z,3.23
2018-06-12T10:05:32.181Z,3.10
2018-06-12T10:08:01.583Z,3.47
2018-06-12T10:10:30.982Z,3.77
2018-06-12T10:13:00.139Z,3.50
2018-06-12T10:15:30.168Z,3.20
2018-06-12T10:17:59.606Z,3.03
2018-06-12T10:20:28.749Z,3.17
2018-06-12T10:22:58.151Z,2.83
2018-06-12T10:25:27.444Z,3.17
2018-06-12T10:27:56.554Z,3.30
2018-06-12T10:30:25.756Z,3.07
2018-06-12T10:32:55.063Z,3.10
2018-06-12T10:35:24.321Z,3.90
2018-06-12T10:37:53.358Z,3.30
2018-06-12T10:40:22.507Z,4.23
2018-06-12T10:42:51.620Z,2.97
2018-06-12T10:45:20.891Z,3.80
2018-06-12T10:47:50.216Z,3.03
2018-06-12T10:50:19.334Z,4.10
2018-06-12T10:52:48.421Z,3.43
2018-06-12T10:55:17.575Z,4.20
2018-06-12T10:57:46.720Z,3.53
2018-06-12T11:00:15.934Z,4.20
2018-06-12T11:02:45.037Z,3.87
2018-06-12T11:05:14.144Z,4.40
2018-06-12T11:07:43.212Z,3.57
2018-06-12T11:10:12.563Z,3.50
2018-06-12T11:12:41.711Z,4.43
2018-06-12T11:15:10.937Z,4.03
2018-06-12T11:17:40.083Z,4.23
2018-06-12T11:20:09.366Z,4.77
2018-06-12T11:22:38.584Z,4.60
2018-06-12T11:25:07.713Z,4.03
2018-06-12T11:27:36.905Z,4.17
2018-06-12T11:30:06.224Z,4.87
2018-06-12T11:32:35.577Z,3.83
2018-06-12T11:35:04.962Z,4.07
2018-06-12T11:37:34.204Z,4.03
2018-06-12T11:40:03.754Z,3.97
2018-06-12T11:42:32.915Z,4.43
2018-06-12T11:45:02.136Z,4.40
2018-06-12T11:47:31.284Z,4.10
2018-06-12T11:50:00.404Z,5.10
2018-06-12T11:52:29.643Z,3.80
2018-06-12T11:54:58.700Z,4.73
2018-06-12T11:57:27.981Z,3.73
2018-06-12T11:59:57.145Z,4.67
2018-06-12T12:02:26.266Z,3.50
2018-06-12T12:04:55.415Z,4.27
2018-06-12T12:07:24.612Z,3.67
2018-06-12T12:09:53.866Z,3.83
2018-06-12T12:12:22.967Z,4.40
2018-06-12T12:14:52.062Z,4.70
2018-06-12T12:17:21.320Z,4.93
2018-06-12T12:19:50.374Z,5.93
2018-06-12T12:22:19.693Z,5.60
2018-06-12T12:24:49.038Z,4.87
2018-06-12T12:27:18.766Z,6.20
2018-06-12T12:29:47.887Z,5.00
2018-06-12T12:32:17.073Z,4.37
2018-06-12T12:34:46.451Z,4.30
2018-06-12T12:37:15.465Z,3.97
2018-06-12T12:39:44.678Z,4.30
2018-06-12T12:42:14.039Z,5.83
2018-06-12T12:44:43.259Z,3.57
2018-06-12T12:47:12.750Z,3.80
2018-06-12T12:49:41.912Z,4.13
2018-06-12T12:52:11.167Z,4.57
2018-06-12T12:54:40.524Z,5.00
2018-06-12T12:57:09.947Z,5.30
2018-06-12T12:59:39.288Z,4.00
2018-06-12T13:02:08.455Z,4.17
2018-06-12T13:04:37.739Z,3.40
2018-06-12T13:07:06.917Z,4.60
2018-06-12T13:09:36.122Z,3.77
2018-06-12T13:12:06.906Z,6.17
2018-06-12T13:14:36.143Z,4.13
2018-06-12T13:17:06.088Z,4.20
2018-06-12T13:19:35.303Z,4.23
2018-06-12T13:22:04.291Z,4.60
2018-06-12T13:24:33.510Z,4.63
2018-06-12T13:27:02.898Z,4.50
2018-06-12T13:29:32.026Z,4.87
2018-06-12T13:32:01.759Z,4.10
2018-06-12T13:34:30.968Z,4.73
2018-06-12T13:37:00.561Z,4.27
2018-06-12T13:39:30.020Z,4.23
2018-06-12T13:41:59.128Z,4.90
2018-06-12T13:44:28.333Z,4.43
2018-06-12T13:46:57.505Z,4.80
2018-06-12T13:49:26.705Z,5.40
2018-06-12T13:51:55.920Z,4.63
2018-06-12T13:54:25.180Z,5.30
2018-06-12T13:56:54.399Z,4.33
2018-06-12T13:59:23.755Z,5.27
2018-06-12T14:01:53.001Z,5.40
2018-06-12T14:04:22.520Z,7.27
2018-06-12T14:06:51.582Z,15.47
2018-06-12T14:09:20.818Z,12.27
2018-06-12T14:11:50.025Z,12.50
2018-06-12T14:14:19.176Z,9.70
2018-06-12T14:16:48.449Z,8.47
2018-06-12T14:19:17.541Z,9.73
2018-06-12T14:21:46.893Z,11.90
2018-06-12T14:24:15.940Z,8.40
2018-06-12T14:26:45.361Z,10.77
2018-06-12T14:29:14.442Z,11.03
2018-06-12T14:31:43.581Z,12.63
2018-06-12T14:34:12.824Z,14.77
2018-06-12T14:36:41.840Z,15.20
2018-06-12T14:39:11.201Z,19.13
2018-06-12T14:41:40.329Z,15.87
2018-06-12T14:44:09.755Z,18.73
2018-06-12T14:46:38.864Z,24.77
2018-06-12T14:49:08.056Z,26.30
2018-06-12T14:51:37.241Z,28.23
2018-06-12T14:54:06.541Z,28.30
2018-06-12T14:56:35.756Z,28.63
2018-06-12T14:59:06.813Z,26.03
2018-06-12T15:01:36.113Z,28.67
2018-06-12T15:04:05.390Z,20.33
2018-06-12T15:06:34.659Z,23.30
2018-06-12T15:09:04.445Z,25.00
2018-06-12T15:11:33.936Z,29.70
2018-06-12T15:14:03.326Z,28.30
2018-06-12T15:16:32.520Z,29.37
2018-06-12T15:19:02.511Z,29.47
2018-06-12T15:21:31.639Z,26.87
2018-06-12T15:24:00.776Z,22.50
2018-06-12T15:26:30.294Z,21.40
2018-06-12T15:28:59.548Z,23.27
2018-06-12T15:31:28.754Z,23.43
2018-06-12T15:33:57.887Z,18.67
2018-06-12T15:36:27.512Z,22.33
2018-06-12T15:38:56.682Z,23.53
2018-06-12T15:41:25.880Z,22.53
2018-06-12T15:43:55.118Z,23.80
2018-06-12T15:46:24.370Z,19.97
2018-06-12T15:48:53.792Z,19.40
2018-06-12T15:51:22.833Z,17.37
2018-06-12T15:53:51.965Z,16.73
2018-06-12T15:56:21.131Z,14.10
2018-06-12T15:58:50.342Z,15.10
2018-06-12T16:01:19.609Z,14.77
2018-06-12T16:03:49.012Z,12.60
2018-06-12T16:06:18.351Z,13.80
2018-06-12T16:08:47.509Z,13.87
2018-06-12T16:11:16.854Z,12.57
2018-06-12T16:13:46.271Z,15.20
2018-06-12T16:16:15.514Z,15.13
2018-06-12T16:18:44.747Z,14.60
2018-06-12T16:21:13.908Z,15.70
2018-06-12T16:23:43.334Z,16.50
2018-06-12T16:26:12.547Z,15.70
2018-06-12T16:28:41.929Z,15.30
2018-06-12T16:31:11.105Z,14.27
2018-06-12T16:33:40.271Z,14.77
2018-06-12T16:36:09.645Z,16.00
2018-06-12T16:38:39.124Z,14.17
2018-06-12T16:41:08.451Z,12.40
2018-06-12T16:43:37.704Z,14.13
2018-06-12T16:46:08.568Z,14.97
2018-06-12T16:48:37.716Z,9.50
2018-06-12T16:51:07.062Z,9.80
2018-06-12T16:53:36.338Z,9.93
2018-06-12T16:56:05.747Z,11.60
2018-06-12T16:58:34.918Z,11.57
2018-06-12T17:01:04.320Z,10.23
2018-06-12T17:03:33.659Z,11.23
2018-06-12T17:06:03.133Z,16.90
2018-06-12T17:08:32.524Z,13.20
2018-06-12T17:11:01.569Z,14.40
2018-06-12T17:13:30.763Z,10.70
2018-06-12T17:15:59.779Z,12.10
2018-06-12T17:18:28.930Z,13.17
2018-06-12T17:20:58.190Z,13.37
2018-06-12T17:23:27.415Z,13.10
2018-06-12T17:25:56.538Z,12.93
2018-06-12T17:28:25.735Z,11.90
2018-06-12T17:30:55.129Z,11.43
2018-06-12T17:33:24.273Z,10.07
2018-06-12T17:35:53.332Z,10.07
2018-06-12T17:38:22.394Z,8.30
2018-06-12T17:40:51.434Z,8.17
2018-06-12T17:43:20.496Z,9.07
2018-06-12T17:45:49.611Z,10.50
2018-06-12T17:48:18.667Z,8.90
2018-06-12T17:50:47.738Z,8.93
2018-06-12T17:53:16.884Z,9.00
2018-06-12T17:55:45.992Z,9.10
2018-06-12T17:58:15.049Z,10.70
2018-06-12T18:00:44.196Z,9.53
2018-06-12T18:03:13.328Z,8.70
2018-06-12T18:05:42.421Z,13.20
2018-06-12T18:08:11.527Z,9.07
2018-06-12T18:10:40.513Z,8.50
2018-06-12T18:13:09.693Z,8.23
2018-06-12T18:15:38.791Z,10.50
2018-06-12T18:18:07.914Z,8.33
2018-06-12T18:20:37.050Z,10.23
2018-06-12T18:23:06.846Z,7.87
2018-06-12T18:25:35.943Z,8.00
2018-06-12T18:28:05.088Z,8.00
2018-06-12T18:30:34.320Z,7.43
2018-06-12T18:33:03.323Z,7.10
2018-06-12T18:35:32.435Z,6.17
2018-06-12T18:38:01.616Z,5.13
2018-06-12T18:40:30.576Z,5.47
2018-06-12T18:42:59.672Z,6.07
2018-06-12T18:45:29.020Z,6.57
2018-06-12T18:47:58.121Z,5.90
2018-06-12T18:50:27.205Z,4.83
2018-06-12T18:52:56.389Z,5.60
2018-06-12T18:55:25.400Z,4.40
2018-06-12T18:57:54.454Z,4.60
2018-06-12T19:00:23.486Z,5.90
2018-06-12T19:02:52.673Z,5.50
2018-06-12T19:05:21.704Z,5.07
2018-06-12T19:07:50.658Z,5.90
2018-06-12T19:10:19.688Z,5.27
2018-06-12T19:12:48.745Z,4.70
2018-06-12T19:15:17.826Z,5.00
2018-06-12T19:17:46.841Z,4.97
2018-06-12T19:20:16.090Z,5.37
2018-06-12T19:22:45.194Z,5.53
2018-06-12T19:25:14.249Z,5.37
2018-06-12T19:27:43.303Z,5.10
2018-06-12T19:30:12.307Z,4.90
2018-06-12T19:32:41.415Z,5.20
2018-06-12T19:35:10.606Z,5.47
2018-06-12T19:37:39.672Z,5.80
2018-06-12T19:40:08.747Z,6.60
2018-06-12T19:42:37.791Z,5.63
2018-06-12T19:45:06.867Z,5.70
2018-06-12T19:47:36.224Z,5.57
2018-06-12T19:50:06.076Z,6.83
2018-06-12T19:52:35.306Z,5.27
2018-06-12T19:55:04.455Z,5.80
2018-06-12T19:57:33.470Z,6.23
2018-06-12T20:00:03.469Z,6.60
2018-06-12T20:02:32.650Z,6.30
2018-06-12T20:05:01.669Z,6.10
2018-06-12T20:07:30.777Z,6.30
2018-06-12T20:09:59.896Z,6.80
2018-06-12T20:12:28.904Z,5.67
2018-06-12T20:14:58.074Z,7.40
2018-06-12T20:17:27.211Z,7.33
2018-06-12T20:19:56.497Z,6.37
2018-06-12T20:22:25.601Z,6.33
2018-06-12T20:24:54.801Z,7.30
2018-06-12T20:27:23.954Z,9.07
2018-06-12T20:29:52.981Z,9.10
2018-06-12T20:32:22.028Z,8.10
2018-06-12T20:34:51.057Z,11.17
2018-06-12T20:37:20.213Z,9.90
2018-06-12T20:39:49.215Z,9.53
2018-06-12T20:42:18.364Z,13.03
2018-06-12T20:44:47.634Z,11.90
2018-06-12T20:47:16.752Z,9.80
2018-06-12T20:49:45.929Z,11.00
2018-06-12T20:52:14.948Z,10.70
2018-06-12T20:54:44.265Z,10.53
2018-06-12T20:57:13.302Z,10.63
2018-06-12T20:59:42.331Z,11.40
2018-06-12T21:02:11.744Z,11.37
2018-06-12T21:04:40.793Z,11.73
2018-06-12T21:07:09.924Z,12.63
2018-06-12T21:09:38.935Z,11.67
2018-06-12T21:12:08.030Z,10.57
2018-06-12T21:14:37.094Z,11.57
2018-06-12T21:17:06.311Z,11.40
2018-06-12T21:19:35.461Z,11.03
2018-06-12T21:22:04.610Z,11.10
2018-06-12T21:24:33.599Z,12.13
2018-06-12T21:27:02.656Z,11.77
2018-06-12T21:29:31.693Z,11.40
2018-06-12T21:32:01.187Z,13.53
2018-06-12T21:34:30.397Z,12.10
2018-06-12T21:36:59.551Z,12.30
2018-06-12T21:39:29.065Z,13.00
2018-06-12T21:41:58.110Z,12.70
2018-06-12T21:44:27.346Z,13.67
2018-06-12T21:46:56.425Z,15.50
2018-06-12T21:49:25.468Z,14.90
2018-06-12T21:51:54.711Z,13.80
2018-06-12T21:54:23.870Z,14.10
2018-06-12T21:56:53.146Z,14.67
2018-06-12T21:59:22.246Z,14.60
2018-06-12T22:01:52.168Z,13.70
2018-06-12T22:04:21.341Z,13.30
2018-06-12T22:06:50.405Z,14.03
2018-06-12T22:09:19.618Z,14.63
2018-06-12T22:11:48.839Z,13.77
2018-06-12T22:14:18.149Z,14.13
2018-06-12T22:16:47.138Z,13.57
2018-06-12T22:19:16.366Z,13.97
2018-06-12T22:21:45.468Z,13.47
2018-06-12T22:24:14.710Z,12.90
2018-06-12T22:26:43.781Z,11.97
2018-06-12T22:29:13.036Z,11.33
2018-06-12T22:31:42.082Z,11.80
2018-06-12T22:34:11.185Z,10.90
2018-06-12T22:36:40.209Z,11.37
2018-06-12T22:39:09.637Z,11.20
2018-06-12T22:41:38.766Z,11.67
2018-06-12T22:44:07.896Z,10.50
2018-06-12T22:46:37.086Z,10.03
2018-06-12T22:49:06.333Z,9.97
2018-06-12T22:51:35.462Z,8.30
2018-06-12T22:54:04.618Z,8.97
2018-06-12T22:56:33.785Z,8.77
2018-06-12T22:59:05.706Z,8.57
2018-06-12T23:01:34.851Z,8.60
2018-06-12T23:04:07.362Z,8.30
2018-06-12T23:06:36.436Z,10.53
2018-06-12T23:09:07.812Z,9.57
2018-06-12T23:11:36.945Z,9.17
2018-06-12T23:14:06.097Z,8.77
2018-06-12T23:16:35.350Z,8.57
2018-06-12T23:19:04.393Z,7.90
2018-06-12T23:21:45.152Z,8.30
2018-06-12T23:24:14.324Z,9.20
2018-06-12T23:26:43.452Z,8.30
2018-06-12T23:29:12.475Z,7.37
2018-06-12T23:31:41.733Z,7.37
2018-06-12T23:34:10.695Z,7.37
2018-06-12T23:36:39.736Z,7.30
2018-06-12T23:39:09.512Z,7.73
2018-06-12T23:41:38.697Z,7.17
2018-06-12T23:44:07.823Z,6.93
2018-06-12T23:46:36.867Z,7.00
2018-06-12T23:49:05.898Z,8.77
2018-06-12T23:51:35.000Z,8.33
2018-06-12T23:54:04.628Z,8.07
2018-06-12T23:56:33.709Z,8.13
2018-06-12T23:59:02.968Z,8.53
